Time;durP1;ratioP1;P1;durP2;ratioP2;P2;SDS_P1;SDS_P2;PMS_P1;PMS_P2;Temp;Humidity;BMP_temperature;BMP_pressure;BME280_temperature;BME280_humidity;BME280_pressure;Samples;Min_cycle;Max_cycle;Signal;HPM_P1;HPM_P2
2023/11/14 00:00:34;;;;;;;9.55;0.85;;;12.80;99.90;;;;;;5051454;28;20428;-72
2023/11/14 00:03:00;;;;;;;8.05;1.02;;;12.90;99.90;;;;;;5028854;28;20037;-72
2023/11/14 00:05:26;;;;;;;2.25;0.90;;;12.80;99.90;;;;;;5051039;28;20029;-72
2023/11/14 00:07:51;;;;;;;2.97;1.17;;;12.70;99.90;;;;;;5029896;28;20055;-72
2023/11/14 00:10:17;;;;;;;4.15;1.00;;;12.70;99.90;;;;;;5017763;28;20028;-72
2023/11/14 00:12:43;;;;;;;8.45;0.80;;;12.70;99.90;;;;;;5010706;28;20029;-72
2023/11/14 00:15:09;;;;;;;4.18;1.67;;;12.70;99.90;;;;;;5051232;28;20039;-72
2023/11/14 00:17:35;;;;;;;5.05;1.52;;;12.70;99.90;;;;;;5049938;28;20036;-72
2023/11/14 00:20:00;;;;;;;6.22;0.95;;;12.60;99.90;;;;;;5051116;28;20035;-72
2023/11/14 00:22:26;;;;;;;7.55;1.20;;;12.60;99.90;;;;;;5049144;28;20040;-72
2023/11/14 00:24:52;;;;;;;2.05;0.70;;;12.70;99.90;;;;;;5050914;28;20116;-73
2023/11/14 00:27:18;;;;;;;8.48;1.20;;;12.70;99.90;;;;;;5030594;28;20025;-72
2023/11/14 00:29:44;;;;;;;6.32;0.80;;;12.70;99.90;;;;;;5032903;28;20025;-72
2023/11/14 00:32:09;;;;;;;8.02;0.90;;;12.60;99.90;;;;;;5030286;28;20063;-72
2023/11/14 00:34:37;;;;;;;7.95;1.42;;;12.60;99.90;;;;;;5046665;28;20517;-72
2023/11/14 00:37:03;;;;;;;6.20;0.70;;;12.60;99.90;;;;;;5033322;28;20124;-72
2023/11/14 00:39:29;;;;;;;4.10;1.05;;;12.80;99.90;;;;;;5015879;28;20029;-72
2023/11/14 00:41:55;;;;;;;3.25;0.70;;;12.80;99.90;;;;;;5051387;28;20037;-72
2023/11/14 00:44:22;;;;;;;3.47;1.02;;;12.80;99.90;;;;;;5031894;28;20087;-72
2023/11/14 00:46:48;;;;;;;3.80;0.57;;;12.90;99.90;;;;;;5033421;28;20425;-72
2023/11/14 00:49:14;;;;;;;10.52;1.52;;;12.90;99.90;;;;;;5028690;28;20103;-72
2023/11/14 00:51:40;;;;;;;14.90;1.23;;;12.80;99.90;;;;;;5025762;28;20026;-72
2023/11/14 00:54:06;;;;;;;6.50;1.17;;;12.90;99.90;;;;;;5031765;28;20104;-72
2023/11/14 00:56:31;;;;;;;8.30;0.85;;;12.80;99.90;;;;;;5050822;28;20029;-72
2023/11/14 00:58:57;;;;;;;7.72;0.98;;;12.90;99.90;;;;;;5045042;28;20453;-72
2023/11/14 01:01:23;;;;;;;4.82;0.82;;;12.90;99.90;;;;;;5033064;28;20368;-72
2023/11/14 01:03:48;;;;;;;14.38;1.27;;;12.80;99.90;;;;;;5045253;28;20037;-72
2023/11/14 01:06:14;;;;;;;7.28;0.75;;;12.70;99.90;;;;;;5050883;28;20040;-72
2023/11/14 01:08:40;;;;;;;1.75;0.45;;;12.70;99.90;;;;;;5045055;28;20024;-72
2023/11/14 01:11:06;;;;;;;8.95;1.10;;;12.70;99.90;;;;;;5050899;28;20037;-72
2023/11/14 01:13:31;;;;;;;5.13;1.73;;;12.50;99.90;;;;;;5045025;28;20029;-72
2023/11/14 01:15:57;;;;;;;4.13;1.00;;;12.50;99.90;;;;;;5033071;28;20382;-72
2023/11/14 01:18:23;;;;;;;6.70;0.98;;;12.60;99.90;;;;;;5028154;28;20076;-72
2023/11/14 01:20:49;;;;;;;6.45;1.10;;;12.70;99.90;;;;;;5027247;28;20045;-72
2023/11/14 01:23:16;;;;;;;11.85;1.65;;;12.80;99.90;;;;;;5028740;28;20029;-72
2023/11/14 01:25:43;;;;;;;9.75;1.55;;;12.80;99.90;;;;;;5046735;28;20028;-72
2023/11/14 01:28:09;;;;;;;5.38;1.20;;;12.70;99.90;;;;;;5032261;28;20106;-72
2023/11/14 01:30:34;;;;;;;7.22;1.15;;;12.70;99.90;;;;;;5029468;28;20420;-72
2023/11/14 01:33:01;;;;;;;2.20;0.50;;;12.80;99.90;;;;;;5021418;28;20036;-73
2023/11/14 01:35:26;;;;;;;16.13;1.52;;;12.70;99.90;;;;;;5032766;28;20084;-72
2023/11/14 01:37:52;;;;;;;3.45;0.77;;;12.60;99.90;;;;;;5031569;28;20455;-72
2023/11/14 01:40:18;;;;;;;1.20;0.70;;;12.70;99.90;;;;;;5053442;28;20025;-72
2023/11/14 01:42:44;;;;;;;14.50;1.73;;;12.80;99.90;;;;;;5036032;28;20102;-71
2023/11/14 01:45:10;;;;;;;6.70;0.88;;;12.80;99.90;;;;;;5036393;28;20039;-72
2023/11/14 01:47:36;;;;;;;4.78;0.95;;;12.70;99.90;;;;;;5014952;28;20428;-72
2023/11/14 01:50:02;;;;;;;5.32;0.43;;;12.70;99.90;;;;;;5034666;28;20445;-72
2023/11/14 01:52:28;;;;;;;11.55;0.65;;;12.70;99.90;;;;;;5033084;28;20475;-72
2023/11/14 01:54:55;;;;;;;11.48;1.95;;;12.60;99.90;;;;;;5033813;28;20047;-71
2023/11/14 01:57:21;;;;;;;13.45;1.15;;;12.60;99.90;;;;;;5017927;28;20021;-72
2023/11/14 01:59:48;;;;;;;1.58;0.47;;;12.70;99.90;;;;;;5023101;28;20025;-72
2023/11/14 02:02:15;;;;;;;5.60;0.93;;;12.50;99.90;;;;;;5033152;28;20029;-71
2023/11/14 02:04:42;;;;;;;5.22;1.20;;;12.50;99.90;;;;;;5033486;28;20090;-71
2023/11/14 02:07:08;;;;;;;3.80;0.57;;;12.40;99.90;;;;;;5030198;28;20478;-71
2023/11/14 02:09:34;;;;;;;3.42;0.85;;;12.40;99.90;;;;;;5030726;28;20044;-72
2023/11/14 02:12:00;;;;;;;3.63;0.95;;;12.40;99.90;;;;;;5019172;28;20028;-72
2023/11/14 02:14:27;;;;;;;6.90;0.80;;;12.30;99.90;;;;;;5031817;28;20029;-71
2023/11/14 02:16:56;;;;;;;6.35;0.80;;;12.30;99.90;;;;;;5053750;28;20021;-71
2023/11/14 02:19:23;;;;;;;10.98;1.15;;;12.20;99.90;;;;;;5029511;28;20039;-72
2023/11/14 02:21:50;;;;;;;5.90;1.38;;;12.20;99.90;;;;;;5019036;28;20033;-71
2023/11/14 02:24:20;;;;;;;12.13;1.02;;;12.20;99.90;;;;;;5030240;28;20068;-71
2023/11/14 02:26:48;;;;;;;4.72;0.88;;;12.20;99.90;;;;;;5035499;28;20486;-72
2023/11/14 02:29:22;;;;;;;4.03;0.85;;;12.10;99.90;;;;;;5047262;28;20398;-72
2023/11/14 02:31:49;;;;;;;4.63;1.00;;;12.20;99.90;;;;;;5023776;28;20036;-72
2023/11/14 02:34:15;;;;;;;4.85;1.08;;;12.10;99.90;;;;;;5021189;28;20036;-71
2023/11/14 02:36:41;;;;;;;5.60;0.80;;;12.00;99.90;;;;;;5031708;28;20021;-71
2023/11/14 02:39:13;;;;;;;2.03;0.68;;;11.90;99.90;;;;;;5033668;28;20497;-71
2023/11/14 02:41:39;;;;;;;4.72;0.65;;;11.90;99.90;;;;;;5031903;28;20060;-72
2023/11/14 02:44:05;;;;;;;30.73;1.90;;;11.70;99.90;;;;;;5032896;28;20118;-72
2023/11/14 02:46:32;;;;;;;5.68;0.88;;;11.80;99.90;;;;;;5048792;28;20100;-71
2023/11/14 02:49:30;;;;;;;12.48;1.20;;;11.70;99.90;;;;;;5040105;28;20120;-72
2023/11/14 02:51:57;;;;;;;4.45;0.80;;;11.70;99.90;;;;;;5008301;28;20641;-72
2023/11/14 02:54:24;;;;;;;7.38;1.83;;;11.70;99.90;;;;;;5028796;28;20395;-72
2023/11/14 02:56:50;;;;;;;10.93;1.60;;;11.70;99.90;;;;;;5034290;28;20513;-72
2023/11/14 02:59:16;;;;;;;10.32;1.38;;;11.80;99.90;;;;;;5047147;28;20119;-72
2023/11/14 03:01:41;;;;;;;6.72;1.45;;;11.90;99.90;;;;;;5035126;28;20029;-73
2023/11/14 03:04:07;;;;;;;19.52;1.08;;;11.80;99.90;;;;;;5033846;28;20051;-72
2023/11/14 03:06:33;;;;;;;4.13;0.93;;;11.90;99.90;;;;;;5034631;28;20071;-72
2023/11/14 03:08:59;;;;;;;10.18;1.83;;;11.80;99.90;;;;;;5046826;28;20595;-72
2023/11/14 03:11:25;;;;;;;9.68;1.55;;;12.00;99.90;;;;;;5052882;28;20120;-72
2023/11/14 03:13:50;;;;;;;9.55;0.98;;;12.00;99.90;;;;;;5046518;28;20429;-71
2023/11/14 03:16:16;;;;;;;6.25;1.45;;;11.80;99.90;;;;;;5052572;28;20466;-72
2023/11/14 03:18:42;;;;;;;9.40;1.40;;;11.80;99.90;;;;;;5025501;28;20056;-71
2023/11/14 03:21:08;;;;;;;5.40;1.38;;;11.90;99.90;;;;;;5051965;28;20509;-72
2023/11/14 03:23:34;;;;;;;7.93;1.48;;;11.90;99.90;;;;;;5046252;28;20029;-72
2023/11/14 03:25:59;;;;;;;10.13;1.20;;;11.90;99.90;;;;;;5052124;28;20467;-71
2023/11/14 03:28:25;;;;;;;8.63;1.58;;;11.90;99.90;;;;;;5033500;28;20036;-72
2023/11/14 03:30:51;;;;;;;7.88;1.30;;;11.70;99.90;;;;;;5051866;28;20032;-72
2023/11/14 03:33:16;;;;;;;2.40;0.45;;;11.70;99.90;;;;;;5017101;28;20140;-72
2023/11/14 03:35:42;;;;;;;10.68;2.30;;;11.70;99.90;;;;;;5052191;28;20060;-70
2023/11/14 03:38:08;;;;;;;13.93;1.63;;;11.60;99.90;;;;;;5050415;28;20112;-71
2023/11/14 03:40:33;;;;;;;5.15;0.80;;;11.60;99.90;;;;;;5052449;28;20032;-70
2023/11/14 03:42:59;;;;;;;6.10;0.77;;;11.70;99.90;;;;;;5046056;28;20029;-71
2023/11/14 03:45:25;;;;;;;5.72;1.42;;;11.60;99.90;;;;;;5051896;28;20029;-71
2023/11/14 03:47:50;;;;;;;11.43;1.45;;;11.70;99.90;;;;;;5027484;28;20120;-70
2023/11/14 03:50:16;;;;;;;13.80;1.20;;;11.60;99.90;;;;;;5030378;28;20021;-72
2023/11/14 03:52:43;;;;;;;13.63;1.70;;;11.60;99.90;;;;;;5042503;28;20030;-70
2023/11/14 03:55:09;;;;;;;24.95;2.25;;;11.60;99.90;;;;;;5033556;28;20028;-70
2023/11/14 03:57:35;;;;;;;7.60;1.70;;;11.60;99.90;;;;;;5029403;28;20029;-71
2023/11/14 04:00:04;;;;;;;6.72;0.85;;;11.60;99.90;;;;;;5032073;28;20056;-71
2023/11/14 04:02:30;;;;;;;5.93;0.73;;;11.60;99.90;;;;;;5028293;28;20037;-71
2023/11/14 04:04:56;;;;;;;9.82;1.60;;;11.50;99.90;;;;;;5049237;28;20082;-71
2023/11/14 04:07:21;;;;;;;14.00;1.15;;;11.60;99.90;;;;;;5030826;28;20033;-71
2023/11/14 04:09:47;;;;;;;4.18;1.05;;;11.70;99.90;;;;;;5047991;28;20033;-70
2023/11/14 04:12:13;;;;;;;2.53;1.20;;;11.60;99.90;;;;;;5031987;28;20025;-72
2023/11/14 04:14:39;;;;;;;4.22;0.93;;;11.50;99.90;;;;;;5029090;28;20029;-70
2023/11/14 04:17:05;;;;;;;13.10;1.27;;;11.60;99.90;;;;;;5050292;28;20134;-71
2023/11/14 04:19:30;;;;;;;18.42;1.13;;;11.60;99.90;;;;;;5013058;28;20017;-72
2023/11/14 04:21:56;;;;;;;8.02;1.77;;;11.60;99.90;;;;;;5031357;28;20043;-71
2023/11/14 04:24:23;;;;;;;13.55;1.33;;;11.60;99.90;;;;;;5045481;28;20058;-71
2023/11/14 04:26:51;;;;;;;4.10;1.40;;;11.60;99.90;;;;;;5051309;28;20033;-72
2023/11/14 04:29:17;;;;;;;15.60;1.75;;;11.70;99.90;;;;;;5027911;28;20032;-71
2023/11/14 04:31:43;;;;;;;11.63;2.03;;;11.70;99.90;;;;;;5033619;28;20025;-71
2023/11/14 04:34:08;;;;;;;11.75;1.08;;;11.70;99.90;;;;;;5044865;28;20493;-72
2023/11/14 04:36:34;;;;;;;4.53;0.70;;;11.80;99.90;;;;;;5051103;28;20025;-71
2023/11/14 04:39:00;;;;;;;2.40;0.85;;;11.80;99.90;;;;;;5043756;28;20037;-72
2023/11/14 04:41:26;;;;;;;5.45;1.58;;;11.80;99.90;;;;;;5051077;28;20025;-70
2023/11/14 04:43:51;;;;;;;11.88;1.77;;;11.90;99.90;;;;;;5032228;28;20453;-72
2023/11/14 04:46:17;;;;;;;15.38;1.52;;;11.90;99.90;;;;;;5033370;28;20135;-71
2023/11/14 04:48:43;;;;;;;5.35;1.17;;;11.90;99.90;;;;;;5031713;28;20024;-70
2023/11/14 04:51:09;;;;;;;6.18;2.00;;;11.90;99.90;;;;;;5033276;28;20644;-71
2023/11/14 04:53:35;;;;;;;13.70;1.35;;;11.90;99.90;;;;;;5032142;28;20032;-71
2023/11/14 04:56:02;;;;;;;5.38;1.17;;;11.90;99.90;;;;;;5048430;28;20100;-72
2023/11/14 04:58:28;;;;;;;7.28;1.40;;;11.90;99.90;;;;;;5044596;28;20074;-72
2023/11/14 05:00:53;;;;;;;4.07;0.93;;;11.90;99.90;;;;;;5051152;28;20025;-72
2023/11/14 05:03:19;;;;;;;5.20;1.08;;;11.90;99.90;;;;;;5045175;28;20044;-72
2023/11/14 05:05:45;;;;;;;3.10;1.10;;;11.90;99.90;;;;;;5050936;28;20061;-71
2023/11/14 05:08:11;;;;;;;7.07;0.77;;;11.90;99.90;;;;;;5044486;28;20124;-71
2023/11/14 05:10:37;;;;;;;9.43;1.58;;;11.80;99.90;;;;;;5050638;28;20116;-71
2023/11/14 05:13:02;;;;;;;4.95;0.73;;;11.80;99.90;;;;;;5044590;28;20061;-70
2023/11/14 05:15:28;;;;;;;4.68;1.52;;;11.80;99.90;;;;;;5053560;28;20438;-71
2023/11/14 05:17:56;;;;;;;3.50;1.08;;;11.70;99.90;;;;;;5048223;28;20383;-71
2023/11/14 05:20:23;;;;;;;4.55;1.27;;;11.80;99.90;;;;;;5037181;28;20074;-72
2023/11/14 05:22:48;;;;;;;5.10;1.67;;;11.80;99.90;;;;;;5021567;28;20040;-72
2023/11/14 05:25:14;;;;;;;1.92;1.00;;;11.80;99.90;;;;;;5033333;28;20117;-72
2023/11/14 05:27:40;;;;;;;9.10;1.23;;;11.70;99.90;;;;;;5047737;28;20033;-71
2023/11/14 05:30:12;;;;;;;0.60;0.50;;;11.80;99.90;;;;;;5054273;28;20498;-71
2023/11/14 05:32:38;;;;;;;7.72;1.52;;;11.80;99.90;;;;;;5049514;28;20033;-72
2023/11/14 05:35:05;;;;;;;6.05;1.45;;;11.80;99.90;;;;;;5018532;28;20033;-71
2023/11/14 05:37:31;;;;;;;7.25;1.13;;;11.90;99.90;;;;;;5023697;28;20387;-72
2023/11/14 05:39:56;;;;;;;9.50;1.15;;;11.90;99.90;;;;;;5035471;28;20037;-72
2023/11/14 05:42:22;;;;;;;7.43;1.67;;;11.80;99.90;;;;;;5051248;28;20029;-73
2023/11/14 05:44:49;;;;;;;4.07;1.20;;;11.80;99.90;;;;;;5039279;28;20112;-73
2023/11/14 05:47:15;;;;;;;5.70;1.30;;;11.80;99.90;;;;;;5050276;28;20033;-72
2023/11/14 05:49:41;;;;;;;2.63;0.88;;;11.80;99.90;;;;;;5028559;28;20108;-72
2023/11/14 05:52:07;;;;;;;9.50;1.42;;;11.80;99.90;;;;;;5032666;28;20032;-73
2023/11/14 05:54:33;;;;;;;2.28;0.77;;;11.80;99.90;;;;;;5029569;28;20026;-72
2023/11/14 05:57:01;;;;;;;6.43;1.20;;;11.80;99.90;;;;;;5044955;28;20382;-73
2023/11/14 05:59:33;;;;;;;6.78;1.05;;;11.80;99.90;;;;;;5034962;28;20040;-73
2023/11/14 06:01:59;;;;;;;6.85;1.10;;;11.90;99.90;;;;;;5032023;28;20098;-72
2023/11/14 06:04:25;;;;;;;7.55;1.05;;;11.90;99.90;;;;;;5018404;28;20514;-73
2023/11/14 06:06:51;;;;;;;4.07;1.02;;;11.90;99.90;;;;;;5031648;28;20476;-72
2023/11/14 06:09:18;;;;;;;13.52;2.10;;;11.90;99.90;;;;;;5052902;28;20036;-72
2023/11/14 06:11:44;;;;;;;5.32;1.15;;;12.00;99.90;;;;;;5047712;28;20060;-72
2023/11/14 06:14:09;;;;;;;9.65;0.82;;;12.00;99.90;;;;;;5026860;28;20129;-73
2023/11/14 06:16:36;;;;;;;3.63;0.80;;;12.00;99.90;;;;;;5053331;28;20029;-73
2023/11/14 06:19:02;;;;;;;6.15;1.17;;;12.10;99.90;;;;;;5045378;28;20033;-74
2023/11/14 06:21:28;;;;;;;4.65;1.17;;;12.10;99.90;;;;;;5046678;28;20025;-72
2023/11/14 06:23:55;;;;;;;2.63;0.93;;;12.10;99.90;;;;;;5026436;28;20028;-73
2023/11/14 06:26:21;;;;;;;12.88;2.85;;;12.00;99.90;;;;;;5031102;28;20071;-73
2023/11/14 06:28:47;;;;;;;8.10;1.25;;;12.00;99.90;;;;;;5039690;28;20037;-73
2023/11/14 06:31:13;;;;;;;5.32;1.27;;;12.10;99.90;;;;;;5018310;28;20021;-74
2023/11/14 06:33:39;;;;;;;16.27;2.55;;;12.10;99.90;;;;;;5033921;28;20025;-73
2023/11/14 06:36:05;;;;;;;4.75;1.08;;;12.10;99.90;;;;;;5035670;28;20033;-71
2023/11/14 06:38:31;;;;;;;7.65;1.17;;;12.10;99.90;;;;;;5034763;28;20379;-72
2023/11/14 06:40:57;;;;;;;14.32;1.27;;;12.10;99.90;;;;;;5051271;28;20486;-71
2023/11/14 06:43:23;;;;;;;2.88;1.35;;;12.20;99.90;;;;;;5026826;28;20505;-71
2023/11/14 06:45:49;;;;;;;12.05;1.60;;;12.30;99.90;;;;;;5051423;28;20037;-72
2023/11/14 06:48:16;;;;;;;11.48;4.00;;;12.30;99.90;;;;;;5044167;28;20025;-70
2023/11/14 06:50:42;;;;;;;7.07;1.73;;;12.40;99.90;;;;;;5034372;28;20025;-71
2023/11/14 06:53:08;;;;;;;58.70;29.58;;;12.40;99.90;;;;;;5043870;28;20580;-71
2023/11/14 06:55:34;;;;;;;5.00;1.20;;;12.30;99.90;;;;;;5049083;28;20036;-72
2023/11/14 06:57:59;;;;;;;17.52;4.45;;;12.40;99.90;;;;;;5024897;28;20056;-72
2023/11/14 07:00:25;;;;;;;4.22;0.68;;;12.50;99.90;;;;;;5051230;28;20482;-71
2023/11/14 07:02:51;;;;;;;20.65;3.17;;;12.40;99.90;;;;;;5030002;28;20039;-71
2023/11/14 07:05:18;;;;;;;11.48;2.38;;;12.40;99.90;;;;;;5010794;28;20037;-71
2023/11/14 07:07:47;;;;;;;9.48;1.58;;;12.40;99.90;;;;;;5026035;28;20064;-71
2023/11/14 07:10:13;;;;;;;6.57;1.20;;;12.30;99.90;;;;;;5015314;28;20040;-71
2023/11/14 07:12:40;;;;;;;5.57;0.95;;;12.40;99.90;;;;;;5051230;28;20021;-72
2023/11/14 07:15:06;;;;;;;92.72;41.60;;;12.40;99.90;;;;;;5041556;28;20040;-70
2023/11/14 07:17:35;;;;;;;12.30;7.03;;;12.50;99.90;;;;;;5040451;28;20018;-68
2023/11/14 07:20:05;;;;;;;7.55;1.00;;;12.50;99.90;;;;;;5032174;28;20036;-70
2023/11/14 07:22:32;;;;;;;11.55;1.00;;;12.50;99.90;;;;;;5043887;28;20029;-69
2023/11/14 07:25:00;;;;;;;3.70;1.20;;;12.50;99.90;;;;;;5029876;28;20647;-72
2023/11/14 07:27:26;;;;;;;13.70;2.05;;;12.60;99.90;;;;;;5015779;28;20040;-71
2023/11/14 07:29:51;;;;;;;1.17;0.38;;;12.60;99.90;;;;;;5048391;28;20045;-69
2023/11/14 07:32:17;;;;;;;7.38;1.25;;;12.60;99.90;;;;;;5038975;28;20415;-69
2023/11/14 07:34:43;;;;;;;4.47;2.70;;;12.60;99.90;;;;;;5046823;28;20040;-71
2023/11/14 07:37:09;;;;;;;10.38;2.13;;;12.70;99.90;;;;;;5033406;28;20043;-69
2023/11/14 07:39:34;;;;;;;11.75;2.05;;;12.70;99.90;;;;;;5036757;28;20037;-69
2023/11/14 07:42:00;;;;;;;4.32;1.10;;;12.60;99.90;;;;;;5047554;28;20063;-70
2023/11/14 07:44:26;;;;;;;9.73;1.23;;;12.60;99.90;;;;;;5051148;28;20104;-70
2023/11/14 07:46:52;;;;;;;6.95;1.35;;;12.70;99.90;;;;;;5050304;28;20033;-69
2023/11/14 07:49:18;;;;;;;8.98;2.03;;;12.70;99.90;;;;;;5029680;28;20022;-71
2023/11/14 07:51:43;;;;;;;4.70;1.15;;;12.70;99.90;;;;;;5050610;28;20029;-71
2023/11/14 07:54:10;;;;;;;4.88;0.95;;;12.70;99.90;;;;;;5031580;28;20034;-69
2023/11/14 07:56:41;;;;;;;23.92;6.50;;;12.70;99.90;;;;;;5039663;28;20052;-68
2023/11/14 07:59:08;;;;;;;;;;;12.80;99.90;;;;;;5037251;28;20357;-69
2023/11/14 08:01:34;;;;;;;102.35;67.53;;;12.80;99.90;;;;;;5039475;28;20445;-70
2023/11/14 08:04:05;;;;;;;3.17;0.68;;;12.80;99.90;;;;;;5029811;28;20052;-70
2023/11/14 08:06:31;;;;;;;3.05;0.93;;;12.90;99.90;;;;;;5044745;28;20175;-70
2023/11/14 08:08:57;;;;;;;3.15;1.13;;;12.90;99.90;;;;;;5048925;28;20123;-71
2023/11/14 08:11:23;;;;;;;5.22;0.77;;;12.90;99.90;;;;;;5050454;28;20025;-72
2023/11/14 08:13:48;;;;;;;5.25;1.17;;;13.00;99.90;;;;;;5031850;28;20036;-71
2023/11/14 08:16:14;;;;;;;5.78;1.25;;;13.00;99.90;;;;;;5023407;28;20398;-69
2023/11/14 08:18:40;;;;;;;1.17;0.75;;;13.00;99.90;;;;;;5028684;28;20048;-70
2023/11/14 08:21:09;;;;;;;3.90;0.95;;;13.00;99.90;;;;;;5032867;28;20072;-69
2023/11/14 08:23:35;;;;;;;4.65;0.90;;;13.00;99.90;;;;;;5041648;28;20395;-69
2023/11/14 08:26:01;;;;;;;5.45;0.95;;;13.00;99.90;;;;;;5049166;28;20490;-68
2023/11/14 08:28:27;;;;;;;8.30;1.25;;;13.00;99.90;;;;;;5032339;28;20091;-68
2023/11/14 08:30:53;;;;;;;8.18;1.10;;;13.00;99.90;;;;;;5038842;28;20116;-69
2023/11/14 08:33:18;;;;;;;2.83;1.27;;;13.00;99.90;;;;;;5049885;28;20387;-69
2023/11/14 08:35:44;;;;;;;4.38;1.48;;;13.00;99.90;;;;;;5050130;28;20040;-69
2023/11/14 08:38:10;;;;;;;4.55;1.08;;;13.10;99.90;;;;;;5035438;28;20056;-69
2023/11/14 08:40:35;;;;;;;2.78;0.90;;;13.10;99.90;;;;;;5040311;28;20446;-70
2023/11/14 08:43:01;;;;;;;7.35;0.93;;;13.10;99.90;;;;;;5031668;28;20025;-69
2023/11/14 08:45:29;;;;;;;7.13;1.25;;;13.10;99.90;;;;;;5050462;28;20029;-70
2023/11/14 08:47:56;;;;;;;4.28;0.73;;;13.20;99.90;;;;;;5021966;28;20535;-68
2023/11/14 08:50:23;;;;;;;8.48;1.15;;;13.20;99.90;;;;;;5019714;28;20079;-65
2023/11/14 08:52:49;;;;;;;6.10;1.08;;;13.10;99.90;;;;;;5052534;28;20024;-65
2023/11/14 08:55:15;;;;;;;2.63;1.00;;;13.20;99.90;;;;;;5054344;28;20099;-65
2023/11/14 08:57:41;;;;;;;7.50;0.95;;;13.30;99.90;;;;;;5052305;28;20144;-65
2023/11/14 09:00:09;;;;;;;2.90;0.85;;;13.30;99.90;;;;;;5038105;28;20037;-65
2023/11/14 09:02:36;;;;;;;13.05;0.93;;;13.30;99.90;;;;;;5047097;28;20033;-66
2023/11/14 09:05:02;;;;;;;13.77;1.20;;;13.30;99.90;;;;;;5035966;28;20079;-66
2023/11/14 09:07:28;;;;;;;1.23;0.60;;;13.40;99.90;;;;;;5038208;28;20037;-66
2023/11/14 09:09:54;;;;;;;14.13;1.50;;;13.30;99.90;;;;;;5053928;28;20905;-65
2023/11/14 09:12:19;;;;;;;2.83;0.52;;;13.30;99.90;;;;;;5052153;28;20032;-65
2023/11/14 09:14:46;;;;;;;6.03;0.65;;;13.30;99.90;;;;;;5054066;28;20091;-66
2023/11/14 09:17:12;;;;;;;15.82;2.03;;;13.30;99.90;;;;;;5030768;28;20021;-66
2023/11/14 09:19:37;;;;;;;17.35;6.85;;;13.30;99.90;;;;;;5039140;28;20498;-65
2023/11/14 09:22:05;;;;;;;10.75;1.67;;;13.30;99.90;;;;;;5050215;28;20494;-65
2023/11/14 09:24:30;;;;;;;0.70;0.43;;;13.30;99.90;;;;;;5029786;28;20022;-64
2023/11/14 09:26:56;;;;;;;2.67;0.82;;;13.20;99.90;;;;;;5049550;28;20091;-65
2023/11/14 09:29:22;;;;;;;4.68;1.10;;;13.20;99.90;;;;;;5052040;28;20036;-65
2023/11/14 09:31:48;;;;;;;15.95;1.25;;;13.20;99.90;;;;;;5053603;28;20024;-66
2023/11/14 09:34:14;;;;;;;3.65;1.00;;;13.20;99.90;;;;;;5042322;28;20052;-65
2023/11/14 09:36:39;;;;;;;4.43;1.60;;;13.10;99.90;;;;;;5042151;28;20513;-64
2023/11/14 09:39:07;;;;;;;21.60;1.42;;;13.20;99.90;;;;;;5047956;28;20065;-65
2023/11/14 09:41:33;;;;;;;7.88;1.00;;;13.20;99.90;;;;;;5051050;28;20017;-65
2023/11/14 09:44:00;;;;;;;9.57;1.55;;;13.10;99.90;;;;;;5033053;28;20060;-65
2023/11/14 09:46:26;;;;;;;3.15;0.80;;;13.10;99.90;;;;;;5033055;28;20108;-65
2023/11/14 09:48:52;;;;;;;2.35;0.63;;;13.10;99.90;;;;;;5031921;28;20120;-66
2023/11/14 09:51:19;;;;;;;10.85;0.50;;;13.10;99.90;;;;;;5053540;28;20543;-65
2023/11/14 09:53:47;;;;;;;5.85;0.80;;;13.00;99.90;;;;;;5031572;28;20029;-66
2023/11/14 09:56:14;;;;;;;0.75;0.47;;;13.10;99.90;;;;;;5050389;28;20167;-66
2023/11/14 09:58:40;;;;;;;7.00;0.70;;;13.10;99.90;;;;;;5036097;28;20539;-65
2023/11/14 10:01:06;;;;;;;11.30;1.95;;;13.10;99.90;;;;;;5053655;28;20070;-66
2023/11/14 10:03:32;;;;;;;7.90;1.00;;;13.10;99.90;;;;;;5033907;28;20032;-66
2023/11/14 10:05:57;;;;;;;3.13;0.80;;;13.10;99.90;;;;;;5051673;28;20167;-65
2023/11/14 10:08:24;;;;;;;7.18;0.60;;;13.10;99.90;;;;;;5043988;28;20036;-65
2023/11/14 10:11:10;;;;;;;6.20;0.77;;;13.10;99.90;;;;;;5041092;28;20028;-65
2023/11/14 10:13:37;;;;;;;4.43;0.68;;;13.10;99.90;;;;;;5046389;28;20502;-65
2023/11/14 10:16:20;;;;;;;8.73;1.67;;;13.10;99.90;;;;;;5042392;28;20092;-65
2023/11/14 10:18:48;;;;;;;2.22;0.75;;;13.10;99.90;;;;;;5030571;28;20068;-65
2023/11/14 10:21:32;;;;;;;3.67;1.08;;;13.20;99.90;;;;;;5049764;28;20030;-65
2023/11/14 10:23:58;;;;;;;4.50;1.23;;;13.20;99.90;;;;;;5041699;28;20056;-65
2023/11/14 10:26:25;;;;;;;3.85;0.85;;;13.20;99.90;;;;;;5047849;28;20737;-65
2023/11/14 10:28:57;;;;;;;7.38;1.05;;;13.20;99.90;;;;;;5042985;28;20420;-65
2023/11/14 10:31:50;;;;;;;5.88;0.90;;;13.20;99.90;;;;;;5051652;28;20060;-66
2023/11/14 10:34:31;;;;;;;3.50;0.40;;;13.20;99.90;;;;;;5018788;28;20091;-65
2023/11/14 10:36:58;;;;;;;13.82;1.38;;;13.20;99.90;;;;;;5029289;28;20036;-65
2023/11/14 10:39:25;;;;;;;4.28;1.85;;;13.20;99.90;;;;;;5026923;28;20021;-65
2023/11/14 10:41:52;;;;;;;2.63;0.70;;;13.30;99.90;;;;;;5051721;28;20035;-66
2023/11/14 10:44:20;;;;;;;8.07;1.02;;;13.30;99.90;;;;;;5032028;28;20486;-65
2023/11/14 10:46:51;;;;;;;2.45;0.68;;;13.30;99.90;;;;;;5027649;28;20037;-66
2023/11/14 10:49:18;;;;;;;2.70;0.75;;;13.40;99.90;;;;;;5030975;28;20047;-67
2023/11/14 10:51:46;;;;;;;11.75;1.23;;;13.40;99.90;;;;;;5044390;28;20549;-65
2023/11/14 10:54:13;;;;;;;4.75;0.77;;;13.30;99.90;;;;;;5029471;28;20044;-66
2023/11/14 10:56:39;;;;;;;2.97;0.50;;;13.30;99.90;;;;;;5034101;28;20025;-65
2023/11/14 10:59:13;;;;;;;5.72;0.80;;;13.30;99.90;;;;;;5049608;28;20494;-65
2023/11/14 11:01:40;;;;;;;7.22;0.80;;;13.40;99.90;;;;;;5025806;28;20033;-65
2023/11/14 11:04:10;;;;;;;8.82;1.77;;;13.50;99.90;;;;;;5029133;28;20037;-65
2023/11/14 11:06:36;;;;;;;10.07;1.15;;;13.50;99.90;;;;;;5043595;28;20478;-65
2023/11/14 11:09:07;;;;;;;4.55;0.82;;;13.60;99.90;;;;;;5049862;28;20078;-65
2023/11/14 11:11:39;;;;;;;12.38;1.35;;;13.60;99.90;;;;;;5045864;28;20534;-65
2023/11/14 11:14:10;;;;;;;6.15;0.82;;;13.60;99.90;;;;;;5031686;28;20056;-65
2023/11/14 11:16:54;;;;;;;0.55;0.20;;;13.60;99.90;;;;;;5034121;28;20052;-65
2023/11/14 11:19:25;;;;;;;6.22;1.30;;;13.60;99.90;;;;;;5051225;28;20036;-66
2023/11/14 11:22:15;;;;;;;10.35;1.58;;;13.60;99.90;;;;;;5049571;28;20513;-66
2023/11/14 11:25:21;;;;;;;8.60;1.08;;;13.60;99.90;;;;;;5045595;28;20087;-67
2023/11/14 11:27:47;;;;;;;4.93;0.63;;;13.30;99.90;;;;;;5048117;28;20033;-66
2023/11/14 11:30:13;;;;;;;1.25;0.70;;;13.20;99.90;;;;;;5031742;28;20037;-66
2023/11/14 11:32:45;;;;;;;4.07;0.70;;;13.00;99.90;;;;;;5037470;28;20024;-68
2023/11/14 11:35:20;;;;;;;0.90;0.40;;;13.00;99.90;;;;;;5029085;28;20033;-66
2023/11/14 11:37:57;;;;;;;2.53;0.65;;;13.00;99.90;;;;;;5031215;28;20510;-68
2023/11/14 11:40:28;;;;;;;4.72;0.93;;;12.90;99.90;;;;;;5033905;28;20399;-66
2023/11/14 11:43:16;;;;;;;6.88;1.08;;;12.90;99.90;;;;;;5037094;28;20510;-68
2023/11/14 11:45:45;;;;;;;6.30;0.95;;;12.80;99.90;;;;;;5026001;28;20673;-66
2023/11/14 11:48:35;;;;;;;2.25;0.47;;;12.80;99.90;;;;;;5029677;28;20713;-66
2023/11/14 11:51:23;;;;;;;6.43;0.68;;;12.90;99.90;;;;;;5049360;28;20033;-66
2023/11/14 11:53:49;;;;;;;3.92;0.50;;;12.90;99.90;;;;;;5032591;28;20066;-65
2023/11/14 11:56:37;;;;;;;6.10;1.05;;;12.90;99.90;;;;;;5031454;28;20029;-65
2023/11/14 11:59:07;;;;;;;2.35;0.60;;;12.80;99.90;;;;;;5044684;28;20086;-66
2023/11/14 12:01:33;;;;;;;5.65;0.68;;;12.90;99.90;;;;;;5049922;28;20031;-65
2023/11/14 12:04:00;;;;;;;0.98;0.57;;;12.90;99.90;;;;;;5049726;28;20029;-66
2023/11/14 12:06:26;;;;;;;3.15;0.32;;;12.90;99.90;;;;;;5028980;28;20558;-66
2023/11/14 12:08:53;;;;;;;3.00;0.80;;;12.90;99.90;;;;;;5029890;28;20112;-66
2023/11/14 12:11:23;;;;;;;2.97;0.93;;;12.90;99.90;;;;;;5026361;28;20028;-66
2023/11/14 12:13:55;;;;;;;3.15;1.02;;;12.90;99.90;;;;;;5002110;28;20018;-66
2023/11/14 12:16:22;;;;;;;2.78;1.15;;;13.00;99.90;;;;;;5039990;28;20027;-66
2023/11/14 12:18:49;;;;;;;5.35;0.85;;;13.00;99.90;;;;;;5032110;28;20083;-66
2023/11/14 12:21:17;;;;;;;2.17;0.70;;;13.00;99.90;;;;;;5045189;28;20036;-66
2023/11/14 12:23:44;;;;;;;4.53;0.85;;;13.10;99.90;;;;;;5011509;28;20029;-66
2023/11/14 12:26:10;;;;;;;3.78;1.17;;;13.20;99.90;;;;;;5030294;28;20061;-67
2023/11/14 12:28:40;;;;;;;5.63;1.10;;;13.20;99.90;;;;;;5028150;28;20108;-66
2023/11/14 12:31:13;;;;;;;1.88;0.93;;;13.20;99.90;;;;;;5023175;28;20068;-66
2023/11/14 12:33:50;;;;;;;1.40;0.75;;;13.20;99.90;;;;;;5028379;28;20023;-66
2023/11/14 12:36:29;;;;;;;1.08;0.63;;;13.20;99.90;;;;;;5030995;28;20496;-66
2023/11/14 12:39:11;;;;;;;2.92;0.60;;;13.20;99.90;;;;;;5033897;28;20039;-66
2023/11/14 12:41:42;;;;;;;4.63;1.02;;;13.20;99.90;;;;;;5036109;28;20060;-66
2023/11/14 12:44:08;;;;;;;6.35;1.15;;;13.20;99.90;;;;;;5029832;28;20033;-67
2023/11/14 12:46:36;;;;;;;0.98;0.50;;;13.20;99.90;;;;;;5028316;28;20037;-66